createdAt,value
2023-04-30T00:02:50.690Z,9.20
2023-04-30T00:12:53.535Z,8.05
2023-04-30T00:17:55.015Z,8.02
2023-04-30T00:22:56.469Z,8.60
2023-04-30T00:27:58.011Z,8.75
2023-04-30T00:38:01.084Z,8.25
2023-04-30T00:43:02.599Z,4.93
2023-04-30T00:48:05.917Z,6.45
2023-04-30T00:53:07.589Z,6.38
2023-04-30T00:58:09.056Z,7.38
2023-04-30T01:08:12.305Z,6.60
2023-04-30T01:18:39.754Z,6.35
2023-04-30T01:24:11.281Z,4.93
2023-04-30T01:29:16.647Z,3.60
2023-04-30T01:34:18.158Z,5.15
2023-04-30T01:44:37.840Z,5.28
2023-04-30T01:49:57.241Z,4.70
2023-04-30T01:55:05.338Z,5.22
2023-04-30T02:00:10.804Z,4.95
2023-04-30T02:05:15.327Z,4.63
2023-04-30T02:10:18.485Z,4.63
2023-04-30T02:15:20.015Z,4.35
2023-04-30T02:20:21.735Z,4.30
2023-04-30T02:25:23.192Z,4.18
2023-04-30T02:30:24.651Z,3.80
2023-04-30T02:35:26.090Z,4.20
2023-04-30T02:40:27.617Z,4.20
2023-04-30T02:45:29.247Z,4.00
2023-04-30T02:55:32.805Z,3.83
2023-04-30T03:00:34.488Z,4.15
2023-04-30T03:05:35.997Z,3.47
2023-04-30T03:10:37.730Z,3.40
2023-04-30T03:15:39.174Z,2.92
2023-04-30T03:20:40.655Z,2.42
2023-04-30T03:25:42.350Z,3.55
2023-04-30T03:35:45.587Z,3.35
2023-04-30T03:40:47.126Z,3.47
2023-04-30T03:45:48.662Z,3.08
2023-04-30T03:50:50.187Z,3.10
2023-04-30T03:55:51.754Z,3.35
2023-04-30T04:05:54.616Z,3.90
2023-04-30T04:10:56.178Z,2.65
2023-04-30T04:15:57.623Z,3.17
2023-04-30T04:20:59.133Z,2.35
2023-04-30T04:31:03.270Z,2.97
2023-04-30T04:41:06.666Z,3.08
2023-04-30T04:46:09.622Z,3.20
2023-04-30T04:51:12.833Z,2.80
2023-04-30T04:56:14.308Z,3.75
2023-04-30T05:01:16.082Z,3.17
2023-04-30T05:06:20.433Z,2.08
2023-04-30T05:11:22.663Z,1.73
2023-04-30T05:16:27.519Z,3.20
2023-04-30T05:21:29.778Z,3.15
2023-04-30T05:26:31.265Z,2.28
2023-04-30T05:31:32.856Z,2.97
2023-04-30T05:36:34.320Z,2.45
2023-04-30T05:41:35.813Z,2.80
2023-04-30T05:46:37.242Z,3.10
2023-04-30T05:51:38.679Z,3.03
2023-04-30T05:56:49.068Z,2.40
2023-04-30T06:02:03.517Z,2.75
2023-04-30T06:07:05.156Z,3.17
2023-04-30T06:12:46.036Z,3.28
2023-04-30T06:17:48.386Z,2.78
2023-04-30T06:22:49.955Z,3.60
2023-04-30T06:27:53.960Z,3.25
2023-04-30T06:32:55.669Z,3.22
2023-04-30T06:43:03.102Z,2.70
2023-04-30T06:48:11.225Z,2.78
2023-04-30T06:53:15.741Z,2.35
2023-04-30T06:58:18.498Z,3.08
2023-04-30T07:03:19.999Z,3.25
2023-04-30T07:08:22.269Z,2.83
2023-04-30T07:13:23.725Z,3.97
2023-04-30T07:18:25.225Z,2.83
2023-04-30T07:23:28.383Z,3.20
2023-04-30T07:28:30.636Z,3.40
2023-04-30T07:33:32.061Z,2.95
2023-04-30T07:38:33.502Z,2.60
2023-04-30T07:43:36.006Z,3.22
2023-04-30T07:48:37.782Z,4.15
2023-04-30T07:53:39.208Z,3.35
2023-04-30T07:58:40.639Z,3.80
2023-04-30T08:03:42.185Z,2.33
2023-04-30T08:08:43.730Z,3.15
2023-04-30T08:13:45.276Z,3.50
2023-04-30T08:23:48.183Z,3.25
2023-04-30T08:33:50.979Z,3.40
2023-04-30T08:38:52.407Z,2.53
2023-04-30T08:43:53.908Z,3.03
2023-04-30T08:53:57.614Z,2.20
2023-04-30T08:58:59.044Z,3.38
2023-04-30T09:09:17.990Z,3.50
2023-04-30T09:14:28.129Z,3.47
2023-04-30T09:19:31.131Z,4.20
2023-04-30T09:24:47.562Z,3.17
2023-04-30T09:29:49.234Z,3.40
2023-04-30T09:34:50.717Z,3.45
2023-04-30T09:39:55.067Z,2.80
2023-04-30T10:20:19.387Z,3.33
2023-04-30T10:25:23.020Z,3.22
2023-04-30T10:37:26.474Z,2.53
2023-04-30T10:42:30.605Z,2.25
2023-04-30T10:47:32.320Z,2.35
2023-04-30T10:52:33.798Z,2.17
2023-04-30T10:57:46.582Z,1.90
2023-04-30T11:02:48.758Z,2.40
2023-04-30T11:07:58.124Z,2.33
2023-04-30T11:13:06.824Z,2.22
2023-04-30T11:18:08.941Z,2.80
2023-04-30T11:23:12.749Z,2.13
2023-04-30T11:28:25.750Z,2.67
2023-04-30T11:33:29.933Z,1.73
2023-04-30T11:38:35.736Z,2.00
2023-04-30T11:43:37.232Z,2.25
2023-04-30T11:48:40.763Z,1.73
2023-04-30T11:53:42.393Z,1.70
2023-04-30T11:58:46.708Z,1.60
2023-04-30T12:03:50.869Z,1.88
2023-04-30T12:08:53.974Z,2.42
2023-04-30T12:14:03.854Z,1.70
2023-04-30T12:19:05.369Z,1.70
2023-04-30T12:24:07.287Z,1.90
2023-04-30T12:29:12.676Z,1.52
2023-04-30T12:34:18.378Z,3.00
2023-04-30T12:39:19.811Z,1.92
2023-04-30T12:44:25.615Z,1.63
2023-04-30T12:49:29.353Z,1.83
2023-04-30T12:54:32.524Z,1.73
2023-04-30T12:59:37.266Z,1.88
2023-04-30T13:04:40.212Z,1.65
2023-04-30T13:09:41.642Z,1.60
2023-04-30T13:14:43.079Z,1.60
2023-04-30T13:19:44.506Z,1.98
2023-04-30T13:24:46.045Z,1.85
2023-04-30T13:29:47.598Z,1.50
2023-04-30T13:34:49.191Z,1.73
2023-04-30T13:39:50.634Z,1.45
2023-04-30T13:44:52.237Z,1.45
2023-04-30T13:49:53.882Z,1.58
2023-04-30T13:54:55.795Z,1.75
2023-04-30T13:59:57.503Z,1.50
2023-04-30T14:05:05.685Z,1.55
2023-04-30T14:10:08.411Z,1.40
2023-04-30T14:15:10.116Z,1.77
2023-04-30T14:20:12.228Z,1.40
2023-04-30T14:25:13.668Z,1.65
2023-04-30T14:30:15.621Z,1.50
2023-04-30T14:35:17.134Z,1.60
2023-04-30T14:40:18.591Z,1.70
2023-04-30T14:45:20.627Z,1.23
2023-04-30T14:50:25.164Z,1.35
2023-04-30T14:55:26.712Z,2.08
2023-04-30T15:00:29.306Z,1.35
2023-04-30T15:05:33.171Z,1.13
2023-04-30T15:10:37.621Z,1.20
2023-04-30T15:15:54.253Z,1.80
2023-04-30T15:21:36.365Z,1.48
2023-04-30T15:26:38.470Z,1.33
2023-04-30T15:31:43.777Z,1.25
2023-04-30T15:36:52.050Z,1.40
2023-04-30T15:42:18.482Z,1.75
2023-04-30T15:47:24.690Z,1.42
2023-04-30T15:52:26.774Z,1.23
2023-04-30T15:57:28.685Z,1.20
2023-04-30T16:02:30.367Z,1.50
2023-04-30T16:07:59.104Z,1.30
2023-04-30T16:13:05.231Z,1.48
2023-04-30T16:18:31.579Z,1.42
2023-04-30T16:23:36.350Z,1.33
2023-04-30T16:28:37.790Z,1.38
2023-04-30T16:33:39.409Z,1.45
2023-04-30T16:38:41.831Z,1.52
2023-04-30T16:43:44.023Z,1.50
2023-04-30T16:48:45.534Z,1.40
2023-04-30T16:53:46.976Z,1.42
2023-04-30T16:58:48.418Z,3.90
2023-04-30T17:03:51.375Z,1.60
2023-04-30T17:08:53.354Z,1.67
2023-04-30T17:13:55.215Z,1.48
2023-04-30T17:18:56.642Z,1.40
2023-04-30T17:23:58.610Z,1.65
2023-04-30T17:29:00.053Z,1.20
2023-04-30T17:34:01.519Z,1.30
2023-04-30T17:39:05.553Z,1.88
2023-04-30T17:44:07.142Z,1.65
2023-04-30T17:49:08.618Z,1.38
2023-04-30T17:54:10.071Z,1.42
2023-04-30T17:59:12.454Z,1.20
2023-04-30T18:04:20.004Z,1.40
2023-04-30T18:09:21.632Z,1.13
2023-04-30T18:14:23.073Z,1.55
2023-04-30T18:19:24.666Z,1.38
2023-04-30T18:24:27.791Z,1.40
2023-04-30T18:29:29.225Z,1.40
2023-04-30T18:34:30.851Z,1.48
2023-04-30T18:39:32.310Z,1.80
2023-04-30T18:44:34.346Z,1.40
2023-04-30T18:49:36.316Z,1.42
2023-04-30T18:54:37.786Z,1.42
2023-04-30T18:59:39.630Z,1.35
2023-04-30T19:04:41.051Z,1.35
2023-04-30T19:09:45.121Z,1.60
2023-04-30T19:14:47.106Z,1.52
2023-04-30T19:19:50.095Z,1.45
2023-04-30T19:24:52.498Z,4.40
2023-04-30T19:29:54.510Z,10.02
2023-04-30T19:34:56.346Z,5.43
2023-04-30T19:39:57.857Z,4.65
2023-04-30T19:44:59.467Z,7.18
2023-04-30T19:50:00.908Z,3.47
2023-04-30T19:55:02.874Z,5.47
2023-04-30T20:00:06.002Z,6.68
2023-04-30T20:05:10.526Z,5.68
2023-04-30T20:10:12.729Z,5.75
2023-04-30T20:15:15.131Z,7.63
2023-04-30T20:20:19.796Z,6.70
2023-04-30T20:25:23.050Z,15.30
2023-04-30T20:30:24.978Z,16.60
2023-04-30T20:35:27.341Z,9.63
2023-04-30T20:40:29.979Z,9.05
2023-04-30T20:45:32.549Z,11.30
2023-04-30T20:50:34.994Z,14.38
2023-04-30T20:55:39.099Z,11.23
2023-04-30T21:00:46.537Z,19.42
2023-04-30T23:59:17.670Z,11.70
